sensor_id;sensor_type;location;lat;lon;timestamp;P1;durP1;ratioP1;P2;durP2;ratioP2
75926;SDS011;64605;48.296;16.416;2023-05-10T00:00:52;6.50;;;3.15;;
75926;SDS011;64605;48.296;16.416;2023-05-10T00:03:17;3.50;;;2.65;;
75926;SDS011;64605;48.296;16.416;2023-05-10T00:05:43;4.18;;;2.80;;
75926;SDS011;64605;48.296;16.416;2023-05-10T00:08:09;2.97;;;2.50;;
75926;SDS011;64605;48.296;16.416;2023-05-10T00:10:35;3.60;;;2.97;;
75926;SDS011;64605;48.296;16.416;2023-05-10T00:13:02;4.13;;;2.88;;
75926;SDS011;64605;48.296;16.416;2023-05-10T00:15:27;4.22;;;2.53;;
75926;SDS011;64605;48.296;16.416;2023-05-10T00:17:55;4.20;;;2.92;;
75926;SDS011;64605;48.296;16.416;2023-05-10T00:20:21;4.22;;;3.50;;
75926;SDS011;64605;48.296;16.416;2023-05-10T00:22:47;4.00;;;2.67;;
75926;SDS011;64605;48.296;16.416;2023-05-10T00:25:12;5.55;;;2.67;;
75926;SDS011;64605;48.296;16.416;2023-05-10T00:27:38;5.18;;;2.80;;
75926;SDS011;64605;48.296;16.416;2023-05-10T00:30:04;5.20;;;2.53;;
75926;SDS011;64605;48.296;16.416;2023-05-10T00:32:31;3.80;;;2.90;;
75926;SDS011;64605;48.296;16.416;2023-05-10T00:34:56;3.35;;;3.05;;
75926;SDS011;64605;48.296;16.416;2023-05-10T00:37:22;3.50;;;2.42;;
75926;SDS011;64605;48.296;16.416;2023-05-10T00:39:48;5.65;;;2.50;;
75926;SDS011;64605;48.296;16.416;2023-05-10T00:42:13;5.03;;;2.75;;
75926;SDS011;64605;48.296;16.416;2023-05-10T00:44:39;5.13;;;3.00;;
75926;SDS011;64605;48.296;16.416;2023-05-10T00:47:05;3.08;;;2.70;;
75926;SDS011;64605;48.296;16.416;2023-05-10T00:49:31;5.35;;;2.78;;
75926;SDS011;64605;48.296;16.416;2023-05-10T00:51:56;3.85;;;2.95;;
75926;SDS011;64605;48.296;16.416;2023-05-10T00:54:22;3.58;;;2.55;;
75926;SDS011;64605;48.296;16.416;2023-05-10T00:56:48;4.75;;;2.60;;
75926;SDS011;64605;48.296;16.416;2023-05-10T00:59:17;2.92;;;2.47;;
75926;SDS011;64605;48.296;16.416;2023-05-10T01:01:43;5.97;;;2.85;;
75926;SDS011;64605;48.296;16.416;2023-05-10T01:04:10;4.88;;;2.63;;
75926;SDS011;64605;48.296;16.416;2023-05-10T01:06:38;5.28;;;2.88;;
75926;SDS011;64605;48.296;16.416;2023-05-10T01:09:04;5.40;;;3.13;;
75926;SDS011;64605;48.296;16.416;2023-05-10T01:11:32;4.35;;;2.90;;
75926;SDS011;64605;48.296;16.416;2023-05-10T01:14:03;5.15;;;3.05;;
75926;SDS011;64605;48.296;16.416;2023-05-10T01:16:32;3.90;;;3.38;;
75926;SDS011;64605;48.296;16.416;2023-05-10T01:19:06;4.28;;;2.85;;
75926;SDS011;64605;48.296;16.416;2023-05-10T01:33:35;4.10;;;3.00;;
75926;SDS011;64605;48.296;16.416;2023-05-10T01:39:11;5.47;;;3.78;;
75926;SDS011;64605;48.296;16.416;2023-05-10T01:41:49;5.80;;;3.60;;
75926;SDS011;64605;48.296;16.416;2023-05-10T01:47:06;8.40;;;3.75;;
75926;SDS011;64605;48.296;16.416;2023-05-10T01:49:37;5.07;;;3.88;;
75926;SDS011;64605;48.296;16.416;2023-05-10T01:52:25;4.70;;;3.80;;
75926;SDS011;64605;48.296;16.416;2023-05-10T01:54:58;7.93;;;3.85;;
75926;SDS011;64605;48.296;16.416;2023-05-10T01:57:30;3.72;;;2.88;;
75926;SDS011;64605;48.296;16.416;2023-05-10T01:59:58;6.32;;;4.43;;
75926;SDS011;64605;48.296;16.416;2023-05-10T02:02:26;6.07;;;3.60;;
75926;SDS011;64605;48.296;16.416;2023-05-10T02:04:53;4.22;;;3.67;;
75926;SDS011;64605;48.296;16.416;2023-05-10T02:07:20;5.55;;;4.13;;
75926;SDS011;64605;48.296;16.416;2023-05-10T02:09:48;7.22;;;4.40;;
75926;SDS011;64605;48.296;16.416;2023-05-10T02:12:15;4.40;;;3.92;;
75926;SDS011;64605;48.296;16.416;2023-05-10T02:14:42;6.57;;;4.35;;
75926;SDS011;64605;48.296;16.416;2023-05-10T02:17:09;5.63;;;4.32;;
75926;SDS011;64605;48.296;16.416;2023-05-10T02:19:36;6.20;;;4.05;;
75926;SDS011;64605;48.296;16.416;2023-05-10T02:22:04;6.70;;;4.63;;
75926;SDS011;64605;48.296;16.416;2023-05-10T02:24:30;6.68;;;4.68;;
75926;SDS011;64605;48.296;16.416;2023-05-10T02:26:58;8.63;;;5.45;;
75926;SDS011;64605;48.296;16.416;2023-05-10T02:29:25;5.60;;;4.95;;
75926;SDS011;64605;48.296;16.416;2023-05-10T02:31:52;8.10;;;4.18;;
75926;SDS011;64605;48.296;16.416;2023-05-10T02:34:21;6.18;;;4.82;;
75926;SDS011;64605;48.296;16.416;2023-05-10T02:36:48;6.72;;;4.60;;
75926;SDS011;64605;48.296;16.416;2023-05-10T02:39:14;5.55;;;4.30;;
75926;SDS011;64605;48.296;16.416;2023-05-10T02:41:42;9.10;;;5.13;;
75926;SDS011;64605;48.296;16.416;2023-05-10T02:44:10;7.45;;;4.55;;
75926;SDS011;64605;48.296;16.416;2023-05-10T02:46:38;6.03;;;4.80;;
75926;SDS011;64605;48.296;16.416;2023-05-10T02:49:04;7.78;;;5.70;;
75926;SDS011;64605;48.296;16.416;2023-05-10T02:51:31;8.23;;;5.10;;
75926;SDS011;64605;48.296;16.416;2023-05-10T02:54:06;6.35;;;4.93;;
75926;SDS011;64605;48.296;16.416;2023-05-10T02:56:38;8.57;;;4.85;;
75926;SDS011;64605;48.296;16.416;2023-05-10T02:59:11;9.80;;;5.63;;
75926;SDS011;64605;48.296;16.416;2023-05-10T03:01:37;7.40;;;5.57;;
75926;SDS011;64605;48.296;16.416;2023-05-10T03:04:03;5.93;;;5.00;;
75926;SDS011;64605;48.296;16.416;2023-05-10T03:06:29;7.18;;;5.35;;
75926;SDS011;64605;48.296;16.416;2023-05-10T03:08:55;10.82;;;5.20;;
75926;SDS011;64605;48.296;16.416;2023-05-10T03:11:28;8.70;;;5.68;;
75926;SDS011;64605;48.296;16.416;2023-05-10T03:16:51;6.90;;;5.68;;
75926;SDS011;64605;48.296;16.416;2023-05-10T03:19:24;8.82;;;6.07;;
75926;SDS011;64605;48.296;16.416;2023-05-10T03:21:55;8.15;;;5.90;;
75926;SDS011;64605;48.296;16.416;2023-05-10T03:24:24;8.00;;;5.40;;
75926;SDS011;64605;48.296;16.416;2023-05-10T03:26:53;10.77;;;5.47;;
75926;SDS011;64605;48.296;16.416;2023-05-10T03:29:22;8.50;;;5.93;;
75926;SDS011;64605;48.296;16.416;2023-05-10T03:31:50;8.23;;;5.72;;
75926;SDS011;64605;48.296;16.416;2023-05-10T03:34:16;8.50;;;6.40;;
75926;SDS011;64605;48.296;16.416;2023-05-10T03:36:47;9.93;;;6.63;;
75926;SDS011;64605;48.296;16.416;2023-05-10T03:39:13;7.13;;;6.30;;
75926;SDS011;64605;48.296;16.416;2023-05-10T03:41:39;7.45;;;6.28;;
75926;SDS011;64605;48.296;16.416;2023-05-10T03:44:05;9.63;;;6.60;;
75926;SDS011;64605;48.296;16.416;2023-05-10T03:46:30;9.93;;;6.32;;
75926;SDS011;64605;48.296;16.416;2023-05-10T03:48:56;9.50;;;6.78;;
75926;SDS011;64605;48.296;16.416;2023-05-10T03:51:21;11.13;;;6.70;;
75926;SDS011;64605;48.296;16.416;2023-05-10T03:53:47;9.90;;;6.63;;
75926;SDS011;64605;48.296;16.416;2023-05-10T03:56:13;9.15;;;6.95;;
75926;SDS011;64605;48.296;16.416;2023-05-10T03:58:38;9.05;;;6.55;;
75926;SDS011;64605;48.296;16.416;2023-05-10T04:01:04;9.40;;;6.88;;
75926;SDS011;64605;48.296;16.416;2023-05-10T04:03:30;9.57;;;6.45;;
75926;SDS011;64605;48.296;16.416;2023-05-10T04:06:01;11.23;;;7.07;;
75926;SDS011;64605;48.296;16.416;2023-05-10T04:08:27;11.13;;;6.45;;
75926;SDS011;64605;48.296;16.416;2023-05-10T04:10:53;9.77;;;7.03;;
75926;SDS011;64605;48.296;16.416;2023-05-10T04:13:19;8.30;;;6.55;;
75926;SDS011;64605;48.296;16.416;2023-05-10T04:15:45;9.10;;;6.85;;
75926;SDS011;64605;48.296;16.416;2023-05-10T04:18:11;9.13;;;7.05;;
75926;SDS011;64605;48.296;16.416;2023-05-10T04:20:36;9.30;;;6.85;;
75926;SDS011;64605;48.296;16.416;2023-05-10T04:23:02;9.50;;;7.47;;
75926;SDS011;64605;48.296;16.416;2023-05-10T04:25:28;9.75;;;7.57;;
75926;SDS011;64605;48.296;16.416;2023-05-10T04:27:53;12.13;;;7.80;;
75926;SDS011;64605;48.296;16.416;2023-05-10T04:30:19;10.23;;;8.00;;
75926;SDS011;64605;48.296;16.416;2023-05-10T04:32:44;9.90;;;7.40;;
75926;SDS011;64605;48.296;16.416;2023-05-10T04:35:10;10.40;;;7.13;;
75926;SDS011;64605;48.296;16.416;2023-05-10T04:37:36;11.85;;;6.88;;
75926;SDS011;64605;48.296;16.416;2023-05-10T04:40:02;7.85;;;6.47;;
75926;SDS011;64605;48.296;16.416;2023-05-10T04:42:28;8.07;;;6.90;;
75926;SDS011;64605;48.296;16.416;2023-05-10T04:44:54;10.63;;;7.20;;
75926;SDS011;64605;48.296;16.416;2023-05-10T04:47:19;10.48;;;6.85;;
75926;SDS011;64605;48.296;16.416;2023-05-10T04:49:45;9.70;;;7.18;;
75926;SDS011;64605;48.296;16.416;2023-05-10T04:52:11;10.95;;;7.00;;
75926;SDS011;64605;48.296;16.416;2023-05-10T04:54:36;11.27;;;6.32;;
75926;SDS011;64605;48.296;16.416;2023-05-10T04:57:02;12.13;;;6.80;;
75926;SDS011;64605;48.296;16.416;2023-05-10T04:59:28;11.13;;;6.80;;
75926;SDS011;64605;48.296;16.416;2023-05-10T05:01:54;9.65;;;6.60;;
75926;SDS011;64605;48.296;16.416;2023-05-10T05:04:20;9.07;;;6.72;;
75926;SDS011;64605;48.296;16.416;2023-05-10T05:06:45;10.95;;;7.05;;
75926;SDS011;64605;48.296;16.416;2023-05-10T05:09:11;7.40;;;6.32;;
75926;SDS011;64605;48.296;16.416;2023-05-10T05:11:37;9.65;;;6.55;;
75926;SDS011;64605;48.296;16.416;2023-05-10T05:14:03;9.65;;;6.70;;
75926;SDS011;64605;48.296;16.416;2023-05-10T05:16:30;10.50;;;6.10;;
75926;SDS011;64605;48.296;16.416;2023-05-10T05:18:55;9.95;;;6.32;;
75926;SDS011;64605;48.296;16.416;2023-05-10T05:21:21;11.95;;;6.57;;
75926;SDS011;64605;48.296;16.416;2023-05-10T05:23:47;8.15;;;6.45;;
75926;SDS011;64605;48.296;16.416;2023-05-10T05:26:13;11.40;;;6.22;;
75926;SDS011;64605;48.296;16.416;2023-05-10T05:28:39;10.43;;;5.95;;
75926;SDS011;64605;48.296;16.416;2023-05-10T05:31:05;9.85;;;6.03;;
75926;SDS011;64605;48.296;16.416;2023-05-10T05:33:32;12.05;;;6.82;;
75926;SDS011;64605;48.296;16.416;2023-05-10T05:36:01;8.75;;;6.05;;
75926;SDS011;64605;48.296;16.416;2023-05-10T05:38:28;13.20;;;6.70;;
75926;SDS011;64605;48.296;16.416;2023-05-10T05:40:53;17.42;;;6.20;;
75926;SDS011;64605;48.296;16.416;2023-05-10T05:43:20;9.65;;;6.88;;
75926;SDS011;64605;48.296;16.416;2023-05-10T05:45:46;9.32;;;6.18;;
75926;SDS011;64605;48.296;16.416;2023-05-10T05:48:12;12.30;;;7.38;;
75926;SDS011;64605;48.296;16.416;2023-05-10T05:50:38;9.95;;;6.78;;
75926;SDS011;64605;48.296;16.416;2023-05-10T05:53:03;9.77;;;6.20;;
75926;SDS011;64605;48.296;16.416;2023-05-10T05:55:29;10.57;;;6.78;;
75926;SDS011;64605;48.296;16.416;2023-05-10T05:57:56;7.68;;;5.90;;
75926;SDS011;64605;48.296;16.416;2023-05-10T06:00:22;8.43;;;6.13;;
75926;SDS011;64605;48.296;16.416;2023-05-10T06:02:48;9.82;;;6.03;;
75926;SDS011;64605;48.296;16.416;2023-05-10T06:05:13;7.90;;;5.93;;
75926;SDS011;64605;48.296;16.416;2023-05-10T06:07:39;7.25;;;6.00;;
75926;SDS011;64605;48.296;16.416;2023-05-10T06:10:07;9.85;;;6.50;;
75926;SDS011;64605;48.296;16.416;2023-05-10T06:12:33;7.82;;;5.97;;
75926;SDS011;64605;48.296;16.416;2023-05-10T06:14:59;11.35;;;6.47;;
75926;SDS011;64605;48.296;16.416;2023-05-10T06:17:25;9.27;;;6.68;;
75926;SDS011;64605;48.296;16.416;2023-05-10T06:19:51;10.60;;;6.18;;
75926;SDS011;64605;48.296;16.416;2023-05-10T06:22:17;14.07;;;6.35;;
75926;SDS011;64605;48.296;16.416;2023-05-10T06:24:42;9.43;;;6.90;;
75926;SDS011;64605;48.296;16.416;2023-05-10T06:27:08;14.60;;;6.07;;
75926;SDS011;64605;48.296;16.416;2023-05-10T06:29:34;12.43;;;6.60;;
75926;SDS011;64605;48.296;16.416;2023-05-10T06:31:59;8.02;;;5.80;;
75926;SDS011;64605;48.296;16.416;2023-05-10T06:34:25;10.18;;;6.07;;
75926;SDS011;64605;48.296;16.416;2023-05-10T06:36:51;9.00;;;6.25;;
75926;SDS011;64605;48.296;16.416;2023-05-10T06:39:17;8.50;;;6.05;;
75926;SDS011;64605;48.296;16.416;2023-05-10T06:41:42;12.82;;;5.10;;
75926;SDS011;64605;48.296;16.416;2023-05-10T06:44:08;13.60;;;5.85;;
75926;SDS011;64605;48.296;16.416;2023-05-10T06:46:34;6.93;;;5.30;;
75926;SDS011;64605;48.296;16.416;2023-05-10T06:49:00;8.90;;;5.72;;
75926;SDS011;64605;48.296;16.416;2023-05-10T06:51:25;10.90;;;5.95;;
75926;SDS011;64605;48.296;16.416;2023-05-10T06:53:51;9.20;;;5.22;;
75926;SDS011;64605;48.296;16.416;2023-05-10T06:56:17;7.90;;;5.32;;
75926;SDS011;64605;48.296;16.416;2023-05-10T06:58:42;9.02;;;6.10;;
75926;SDS011;64605;48.296;16.416;2023-05-10T07:01:08;7.53;;;6.15;;
75926;SDS011;64605;48.296;16.416;2023-05-10T07:03:33;9.32;;;5.82;;
75926;SDS011;64605;48.296;16.416;2023-05-10T07:06:02;7.57;;;5.95;;
75926;SDS011;64605;48.296;16.416;2023-05-10T07:08:32;8.90;;;5.97;;
75926;SDS011;64605;48.296;16.416;2023-05-10T07:11:01;7.35;;;5.32;;
75926;SDS011;64605;48.296;16.416;2023-05-10T07:13:28;8.88;;;5.60;;
75926;SDS011;64605;48.296;16.416;2023-05-10T07:15:55;8.20;;;6.25;;
75926;SDS011;64605;48.296;16.416;2023-05-10T07:18:21;6.57;;;5.75;;
75926;SDS011;64605;48.296;16.416;2023-05-10T07:20:46;12.27;;;6.00;;
75926;SDS011;64605;48.296;16.416;2023-05-10T07:23:12;8.73;;;5.68;;
75926;SDS011;64605;48.296;16.416;2023-05-10T07:25:38;6.72;;;5.47;;
75926;SDS011;64605;48.296;16.416;2023-05-10T07:28:03;11.32;;;6.30;;
75926;SDS011;64605;48.296;16.416;2023-05-10T07:30:29;6.70;;;5.10;;
75926;SDS011;64605;48.296;16.416;2023-05-10T07:32:55;7.47;;;6.72;;
75926;SDS011;64605;48.296;16.416;2023-05-10T07:35:21;11.57;;;5.88;;
75926;SDS011;64605;48.296;16.416;2023-05-10T07:37:46;9.25;;;5.68;;
75926;SDS011;64605;48.296;16.416;2023-05-10T07:40:12;7.05;;;6.03;;
75926;SDS011;64605;48.296;16.416;2023-05-10T07:42:38;8.25;;;5.78;;
75926;SDS011;64605;48.296;16.416;2023-05-10T07:45:03;9.90;;;5.80;;
75926;SDS011;64605;48.296;16.416;2023-05-10T07:47:29;13.80;;;6.50;;
75926;SDS011;64605;48.296;16.416;2023-05-10T07:49:55;8.38;;;6.18;;
75926;SDS011;64605;48.296;16.416;2023-05-10T07:52:21;10.20;;;6.30;;
75926;SDS011;64605;48.296;16.416;2023-05-10T07:54:46;10.73;;;6.25;;
75926;SDS011;64605;48.296;16.416;2023-05-10T07:57:12;10.93;;;5.38;;
75926;SDS011;64605;48.296;16.416;2023-05-10T07:59:40;9.55;;;5.93;;
75926;SDS011;64605;48.296;16.416;2023-05-10T08:02:06;7.43;;;5.75;;
75926;SDS011;64605;48.296;16.416;2023-05-10T08:04:31;9.63;;;5.22;;
75926;SDS011;64605;48.296;16.416;2023-05-10T08:06:57;8.63;;;5.30;;
75926;SDS011;64605;48.296;16.416;2023-05-10T08:09:23;12.32;;;5.35;;
75926;SDS011;64605;48.296;16.416;2023-05-10T08:11:49;6.93;;;4.95;;
75926;SDS011;64605;48.296;16.416;2023-05-10T08:14:15;8.82;;;4.18;;
75926;SDS011;64605;48.296;16.416;2023-05-10T08:16:41;7.78;;;4.18;;
75926;SDS011;64605;48.296;16.416;2023-05-10T08:19:07;5.97;;;4.40;;
75926;SDS011;64605;48.296;16.416;2023-05-10T08:21:32;7.82;;;3.83;;
75926;SDS011;64605;48.296;16.416;2023-05-10T08:23:58;10.55;;;4.15;;
75926;SDS011;64605;48.296;16.416;2023-05-10T08:26:24;9.93;;;4.18;;
75926;SDS011;64605;48.296;16.416;2023-05-10T08:28:50;8.98;;;4.10;;
75926;SDS011;64605;48.296;16.416;2023-05-10T08:31:15;8.32;;;4.32;;
75926;SDS011;64605;48.296;16.416;2023-05-10T08:33:41;5.18;;;3.22;;
75926;SDS011;64605;48.296;16.416;2023-05-10T08:36:07;8.10;;;3.25;;
75926;SDS011;64605;48.296;16.416;2023-05-10T08:38:32;5.82;;;3.22;;
75926;SDS011;64605;48.296;16.416;2023-05-10T08:40:58;7.60;;;3.58;;
75926;SDS011;64605;48.296;16.416;2023-05-10T08:43:29;5.30;;;3.03;;
75926;SDS011;64605;48.296;16.416;2023-05-10T08:45:55;7.45;;;3.83;;
75926;SDS011;64605;48.296;16.416;2023-05-10T08:48:22;5.65;;;3.00;;
75926;SDS011;64605;48.296;16.416;2023-05-10T08:50:49;6.63;;;3.13;;
75926;SDS011;64605;48.296;16.416;2023-05-10T08:53:19;11.15;;;3.20;;
75926;SDS011;64605;48.296;16.416;2023-05-10T08:55:46;5.80;;;2.50;;
75926;SDS011;64605;48.296;16.416;2023-05-10T08:58:12;4.93;;;2.33;;
75926;SDS011;64605;48.296;16.416;2023-05-10T09:00:38;7.28;;;2.92;;
75926;SDS011;64605;48.296;16.416;2023-05-10T09:03:05;2.83;;;2.58;;
75926;SDS011;64605;48.296;16.416;2023-05-10T09:05:32;3.80;;;2.80;;
75926;SDS011;64605;48.296;16.416;2023-05-10T09:07:57;7.20;;;3.17;;
75926;SDS011;64605;48.296;16.416;2023-05-10T09:10:25;21.58;;;3.92;;
75926;SDS011;64605;48.296;16.416;2023-05-10T09:12:52;8.40;;;2.58;;
75926;SDS011;64605;48.296;16.416;2023-05-10T09:15:20;5.20;;;2.78;;
75926;SDS011;64605;48.296;16.416;2023-05-10T09:17:46;3.28;;;2.05;;
75926;SDS011;64605;48.296;16.416;2023-05-10T09:20:14;3.47;;;2.00;;
75926;SDS011;64605;48.296;16.416;2023-05-10T09:22:39;4.38;;;2.50;;
75926;SDS011;64605;48.296;16.416;2023-05-10T09:27:39;7.45;;;2.55;;
75926;SDS011;64605;48.296;16.416;2023-05-10T09:30:05;2.42;;;2.13;;
75926;SDS011;64605;48.296;16.416;2023-05-10T09:32:43;4.68;;;2.20;;
75926;SDS011;64605;48.296;16.416;2023-05-10T09:35:14;7.00;;;2.40;;
75926;SDS011;64605;48.296;16.416;2023-05-10T09:37:41;3.72;;;2.53;;
75926;SDS011;64605;48.296;16.416;2023-05-10T09:40:12;3.75;;;2.05;;
75926;SDS011;64605;48.296;16.416;2023-05-10T09:42:41;8.70;;;2.47;;
75926;SDS011;64605;48.296;16.416;2023-05-10T09:45:08;8.45;;;2.47;;
75926;SDS011;64605;48.296;16.416;2023-05-10T09:47:34;6.13;;;2.10;;
75926;SDS011;64605;48.296;16.416;2023-05-10T09:50:01;8.13;;;2.58;;
75926;SDS011;64605;48.296;16.416;2023-05-10T09:53:11;3.78;;;2.28;;
75926;SDS011;64605;48.296;16.416;2023-05-10T09:55:45;5.80;;;2.78;;
75926;SDS011;64605;48.296;16.416;2023-05-10T09:58:11;8.23;;;2.30;;
75926;SDS011;64605;48.296;16.416;2023-05-10T10:00:41;8.18;;;2.50;;
75926;SDS011;64605;48.296;16.416;2023-05-10T10:03:15;3.50;;;1.90;;
75926;SDS011;64605;48.296;16.416;2023-05-10T10:05:43;8.98;;;1.88;;
75926;SDS011;64605;48.296;16.416;2023-05-10T10:08:10;6.03;;;2.22;;
75926;SDS011;64605;48.296;16.416;2023-05-10T10:10:37;6.95;;;2.45;;
75926;SDS011;64605;48.296;16.416;2023-05-10T10:13:05;17.02;;;2.65;;
75926;SDS011;64605;48.296;16.416;2023-05-10T10:15:31;3.90;;;2.13;;
75926;SDS011;64605;48.296;16.416;2023-05-10T10:17:58;3.13;;;2.03;;
75926;SDS011;64605;48.296;16.416;2023-05-10T10:20:25;3.17;;;2.03;;
75926;SDS011;64605;48.296;16.416;2023-05-10T10:22:51;5.38;;;2.05;;
75926;SDS011;64605;48.296;16.416;2023-05-10T10:25:18;4.53;;;1.88;;
75926;SDS011;64605;48.296;16.416;2023-05-10T10:30:27;3.92;;;1.80;;
75926;SDS011;64605;48.296;16.416;2023-05-10T10:35:50;15.60;;;2.75;;
75926;SDS011;64605;48.296;16.416;2023-05-10T10:38:18;5.47;;;1.90;;
75926;SDS011;64605;48.296;16.416;2023-05-10T10:40:43;11.45;;;2.10;;
75926;SDS011;64605;48.296;16.416;2023-05-10T10:43:25;3.53;;;1.80;;
75926;SDS011;64605;48.296;16.416;2023-05-10T10:49:08;16.98;;;2.70;;
75926;SDS011;64605;48.296;16.416;2023-05-10T10:51:38;9.23;;;2.28;;
75926;SDS011;64605;48.296;16.416;2023-05-10T10:54:10;5.18;;;2.22;;
75926;SDS011;64605;48.296;16.416;2023-05-10T10:56:36;4.97;;;2.00;;
75926;SDS011;64605;48.296;16.416;2023-05-10T10:59:02;3.97;;;2.10;;
75926;SDS011;64605;48.296;16.416;2023-05-10T11:01:32;5.72;;;1.90;;
75926;SDS011;64605;48.296;16.416;2023-05-10T11:06:30;4.90;;;1.98;;
75926;SDS011;64605;48.296;16.416;2023-05-10T11:08:57;3.55;;;1.80;;
75926;SDS011;64605;48.296;16.416;2023-05-10T11:11:23;3.22;;;2.10;;
75926;SDS011;64605;48.296;16.416;2023-05-10T11:13:49;3.58;;;2.13;;
75926;SDS011;64605;48.296;16.416;2023-05-10T11:16:21;21.27;;;3.15;;
75926;SDS011;64605;48.296;16.416;2023-05-10T11:19:01;7.28;;;1.73;;
75926;SDS011;64605;48.296;16.416;2023-05-10T11:21:45;2.78;;;1.60;;
75926;SDS011;64605;48.296;16.416;2023-05-10T11:24:16;4.03;;;1.83;;
75926;SDS011;64605;48.296;16.416;2023-05-10T11:26:44;8.65;;;1.80;;
75926;SDS011;64605;48.296;16.416;2023-05-10T11:29:10;4.25;;;1.48;;
75926;SDS011;64605;48.296;16.416;2023-05-10T11:31:41;17.20;;;2.88;;
75926;SDS011;64605;48.296;16.416;2023-05-10T11:34:11;8.60;;;2.28;;
75926;SDS011;64605;48.296;16.416;2023-05-10T11:36:50;6.88;;;1.90;;
75926;SDS011;64605;48.296;16.416;2023-05-10T11:39:18;4.63;;;1.60;;
75926;SDS011;64605;48.296;16.416;2023-05-10T11:41:46;8.80;;;2.00;;
75926;SDS011;64605;48.296;16.416;2023-05-10T11:44:13;4.78;;;2.10;;
75926;SDS011;64605;48.296;16.416;2023-05-10T11:46:39;2.13;;;1.58;;
75926;SDS011;64605;48.296;16.416;2023-05-10T11:49:06;5.20;;;1.92;;
75926;SDS011;64605;48.296;16.416;2023-05-10T11:51:35;5.95;;;1.77;;
75926;SDS011;64605;48.296;16.416;2023-05-10T11:54:05;4.05;;;1.70;;
75926;SDS011;64605;48.296;16.416;2023-05-10T11:59:01;6.30;;;1.83;;
75926;SDS011;64605;48.296;16.416;2023-05-10T12:01:27;4.13;;;2.00;;
75926;SDS011;64605;48.296;16.416;2023-05-10T12:03:54;5.85;;;2.28;;
75926;SDS011;64605;48.296;16.416;2023-05-10T12:06:26;8.90;;;2.30;;
75926;SDS011;64605;48.296;16.416;2023-05-10T12:08:53;5.97;;;1.90;;
75926;SDS011;64605;48.296;16.416;2023-05-10T12:11:19;5.43;;;1.80;;
75926;SDS011;64605;48.296;16.416;2023-05-10T12:13:49;4.40;;;1.70;;
75926;SDS011;64605;48.296;16.416;2023-05-10T12:16:16;6.40;;;2.00;;
75926;SDS011;64605;48.296;16.416;2023-05-10T12:18:44;12.55;;;2.60;;
75926;SDS011;64605;48.296;16.416;2023-05-10T12:21:12;4.03;;;1.70;;
75926;SDS011;64605;48.296;16.416;2023-05-10T12:23:40;7.68;;;1.80;;
75926;SDS011;64605;48.296;16.416;2023-05-10T12:26:08;5.32;;;1.55;;
75926;SDS011;64605;48.296;16.416;2023-05-10T12:28:35;5.47;;;1.80;;
75926;SDS011;64605;48.296;16.416;2023-05-10T12:31:01;6.20;;;1.80;;
75926;SDS011;64605;48.296;16.416;2023-05-10T12:33:34;4.30;;;1.83;;
75926;SDS011;64605;48.296;16.416;2023-05-10T12:36:01;5.50;;;1.98;;
75926;SDS011;64605;48.296;16.416;2023-05-10T12:41:10;7.68;;;2.08;;
75926;SDS011;64605;48.296;16.416;2023-05-10T12:43:36;6.80;;;1.92;;
75926;SDS011;64605;48.296;16.416;2023-05-10T12:46:10;4.75;;;1.83;;
75926;SDS011;64605;48.296;16.416;2023-05-10T12:48:38;20.83;;;3.10;;
75926;SDS011;64605;48.296;16.416;2023-05-10T12:51:05;6.72;;;1.90;;
75926;SDS011;64605;48.296;16.416;2023-05-10T12:53:34;2.67;;;1.73;;
75926;SDS011;64605;48.296;16.416;2023-05-10T12:56:00;3.60;;;2.03;;
75926;SDS011;64605;48.296;16.416;2023-05-10T12:58:26;9.95;;;2.20;;
75926;SDS011;64605;48.296;16.416;2023-05-10T13:00:51;12.50;;;2.40;;
75926;SDS011;64605;48.296;16.416;2023-05-10T13:03:17;4.65;;;1.85;;
75926;SDS011;64605;48.296;16.416;2023-05-10T13:05:43;6.38;;;2.22;;
75926;SDS011;64605;48.296;16.416;2023-05-10T13:08:08;5.00;;;2.13;;
75926;SDS011;64605;48.296;16.416;2023-05-10T13:10:34;4.13;;;2.03;;
75926;SDS011;64605;48.296;16.416;2023-05-10T13:13:00;4.30;;;2.15;;
75926;SDS011;64605;48.296;16.416;2023-05-10T13:15:26;4.93;;;2.40;;
75926;SDS011;64605;48.296;16.416;2023-05-10T13:17:52;4.90;;;2.25;;
75926;SDS011;64605;48.296;16.416;2023-05-10T13:20:18;5.25;;;2.30;;
75926;SDS011;64605;48.296;16.416;2023-05-10T13:22:44;5.85;;;2.85;;
75926;SDS011;64605;48.296;16.416;2023-05-10T13:25:10;7.22;;;2.65;;
75926;SDS011;64605;48.296;16.416;2023-05-10T13:27:36;9.43;;;2.70;;
75926;SDS011;64605;48.296;16.416;2023-05-10T13:30:03;8.68;;;2.28;;
75926;SDS011;64605;48.296;16.416;2023-05-10T13:32:29;5.07;;;2.08;;
75926;SDS011;64605;48.296;16.416;2023-05-10T13:34:55;2.92;;;1.98;;
75926;SDS011;64605;48.296;16.416;2023-05-10T13:37:21;4.13;;;2.10;;
75926;SDS011;64605;48.296;16.416;2023-05-10T13:39:47;3.35;;;2.53;;
75926;SDS011;64605;48.296;16.416;2023-05-10T13:42:13;4.10;;;2.40;;
75926;SDS011;64605;48.296;16.416;2023-05-10T13:44:39;2.15;;;1.95;;
75926;SDS011;64605;48.296;16.416;2023-05-10T13:47:05;5.47;;;2.47;;
75926;SDS011;64605;48.296;16.416;2023-05-10T13:49:31;3.92;;;1.90;;
75926;SDS011;64605;48.296;16.416;2023-05-10T13:51:57;5.70;;;2.25;;
75926;SDS011;64605;48.296;16.416;2023-05-10T13:54:23;4.50;;;1.90;;
75926;SDS011;64605;48.296;16.416;2023-05-10T13:56:49;2.70;;;1.73;;
75926;SDS011;64605;48.296;16.416;2023-05-10T13:59:14;3.83;;;1.95;;
75926;SDS011;64605;48.296;16.416;2023-05-10T14:01:40;2.97;;;1.90;;
75926;SDS011;64605;48.296;16.416;2023-05-10T14:04:07;4.32;;;1.90;;
75926;SDS011;64605;48.296;16.416;2023-05-10T14:06:35;3.15;;;1.67;;
75926;SDS011;64605;48.296;16.416;2023-05-10T14:09:01;11.88;;;2.40;;
75926;SDS011;64605;48.296;16.416;2023-05-10T14:11:30;8.25;;;2.20;;
75926;SDS011;64605;48.296;16.416;2023-05-10T14:13:55;2.72;;;1.67;;
75926;SDS011;64605;48.296;16.416;2023-05-10T14:16:22;1.50;;;1.40;;
75926;SDS011;64605;48.296;16.416;2023-05-10T14:18:47;3.95;;;2.03;;
75926;SDS011;64605;48.296;16.416;2023-05-10T14:21:13;5.03;;;1.88;;
75926;SDS011;64605;48.296;16.416;2023-05-10T14:23:39;1.92;;;1.60;;
75926;SDS011;64605;48.296;16.416;2023-05-10T14:26:04;4.15;;;1.75;;
75926;SDS011;64605;48.296;16.416;2023-05-10T14:28:31;3.47;;;1.85;;
75926;SDS011;64605;48.296;16.416;2023-05-10T14:30:57;4.88;;;1.80;;
75926;SDS011;64605;48.296;16.416;2023-05-10T14:33:22;3.50;;;1.70;;
75926;SDS011;64605;48.296;16.416;2023-05-10T14:35:48;3.10;;;1.40;;
75926;SDS011;64605;48.296;16.416;2023-05-10T14:38:14;4.47;;;1.63;;
75926;SDS011;64605;48.296;16.416;2023-05-10T14:40:40;3.33;;;1.60;;
75926;SDS011;64605;48.296;16.416;2023-05-10T14:43:05;4.05;;;1.80;;
75926;SDS011;64605;48.296;16.416;2023-05-10T14:45:31;5.05;;;2.10;;
75926;SDS011;64605;48.296;16.416;2023-05-10T14:47:57;2.63;;;1.50;;
75926;SDS011;64605;48.296;16.416;2023-05-10T14:50:23;3.20;;;1.67;;
75926;SDS011;64605;48.296;16.416;2023-05-10T14:52:48;4.05;;;1.63;;
75926;SDS011;64605;48.296;16.416;2023-05-10T14:55:15;2.97;;;1.58;;
75926;SDS011;64605;48.296;16.416;2023-05-10T14:57:40;5.13;;;1.33;;
75926;SDS011;64605;48.296;16.416;2023-05-10T15:00:06;2.53;;;1.55;;
75926;SDS011;64605;48.296;16.416;2023-05-10T15:02:32;3.38;;;1.50;;
75926;SDS011;64605;48.296;16.416;2023-05-10T15:04:58;4.10;;;1.75;;
75926;SDS011;64605;48.296;16.416;2023-05-10T15:07:24;4.50;;;1.60;;
75926;SDS011;64605;48.296;16.416;2023-05-10T15:09:50;4.13;;;1.90;;
75926;SDS011;64605;48.296;16.416;2023-05-10T15:12:17;2.13;;;1.50;;